createdAt,value
2018-05-10T00:02:22.451Z,17.47
2018-05-10T00:04:50.175Z,12.63
2018-05-10T00:07:17.802Z,8.17
2018-05-10T00:09:45.396Z,8.47
2018-05-10T00:12:13.010Z,12.23
2018-05-10T00:14:40.608Z,9.67
2018-05-10T00:17:08.253Z,24.47
2018-05-10T00:19:35.862Z,18.63
2018-05-10T00:22:03.534Z,35.60
2018-05-10T00:24:31.102Z,16.03
2018-05-10T00:26:58.702Z,17.80
2018-05-10T00:29:26.553Z,14.20
2018-05-10T00:31:54.153Z,63.80
2018-05-10T00:34:21.783Z,18.20
2018-05-10T00:36:49.379Z,21.60
2018-05-10T00:39:16.970Z,18.53
2018-05-10T00:41:44.591Z,19.83
2018-05-10T00:44:12.191Z,28.33
2018-05-10T00:46:39.808Z,21.10
2018-05-10T00:49:07.405Z,14.47
2018-05-10T00:51:35.038Z,11.00
2018-05-10T00:54:02.629Z,16.03
2018-05-10T00:56:30.242Z,21.90
2018-05-10T00:58:57.860Z,17.33
2018-05-10T01:01:25.470Z,43.60
2018-05-10T01:03:53.222Z,267.23
2018-05-10T01:06:20.838Z,166.93
2018-05-10T01:08:48.429Z,89.10
2018-05-10T01:11:16.055Z,33.60
2018-05-10T01:13:43.656Z,170.73
2018-05-10T01:16:11.277Z,26.13
2018-05-10T01:18:38.867Z,24.20
2018-05-10T01:21:06.486Z,11.17
2018-05-10T01:23:34.083Z,21.57
2018-05-10T01:26:01.730Z,12.97
2018-05-10T01:28:29.326Z,15.33
2018-05-10T01:30:56.927Z,100.00
2018-05-10T01:33:24.546Z,45.23
2018-05-10T01:36:03.830Z,55.97
2018-05-10T01:38:31.614Z,42.27
2018-05-10T01:40:59.208Z,12.10
2018-05-10T01:43:26.831Z,16.00
2018-05-10T01:45:54.423Z,16.80
2018-05-10T01:48:22.019Z,24.00
2018-05-10T01:50:49.638Z,25.00
2018-05-10T01:53:17.243Z,38.73
2018-05-10T01:55:45.034Z,62.40
2018-05-10T01:58:12.638Z,22.57
2018-05-10T02:00:40.588Z,14.53
2018-05-10T02:03:08.182Z,38.80
2018-05-10T02:05:35.778Z,35.17
2018-05-10T02:08:03.401Z,48.43
2018-05-10T02:10:31.051Z,107.83
2018-05-10T02:12:58.684Z,28.67
2018-05-10T02:15:26.291Z,57.43
2018-05-10T02:17:53.929Z,32.90
2018-05-10T02:20:21.631Z,25.33
2018-05-10T02:22:49.218Z,11.83
2018-05-10T02:25:16.830Z,15.70
2018-05-10T02:27:44.431Z,24.57
2018-05-10T02:30:12.053Z,21.60
2018-05-10T02:32:39.642Z,8.97
2018-05-10T02:35:07.376Z,12.37
2018-05-10T02:37:35.067Z,12.40
2018-05-10T02:40:02.694Z,12.10
2018-05-10T02:42:30.318Z,17.17
2018-05-10T02:44:57.941Z,17.30
2018-05-10T02:47:25.566Z,23.33
2018-05-10T02:49:53.167Z,34.20
2018-05-10T02:52:21.238Z,13.73
2018-05-10T02:54:48.902Z,11.20
2018-05-10T02:57:16.505Z,12.73
2018-05-10T02:59:44.130Z,17.60
2018-05-10T03:02:11.724Z,13.90
2018-05-10T03:04:39.338Z,25.97
2018-05-10T03:07:06.945Z,116.27
2018-05-10T03:09:34.588Z,168.43
2018-05-10T03:12:02.236Z,57.83
2018-05-10T03:14:29.832Z,16.53
2018-05-10T03:16:57.452Z,9.50
2018-05-10T03:19:25.042Z,7.50
2018-05-10T03:21:52.662Z,9.20
2018-05-10T03:24:20.271Z,19.53
2018-05-10T03:26:48.103Z,16.10
2018-05-10T03:29:15.702Z,13.30
2018-05-10T03:31:43.310Z,13.43
2018-05-10T03:34:10.943Z,13.10
2018-05-10T03:36:38.560Z,11.27
2018-05-10T03:39:06.204Z,8.60
2018-05-10T03:41:33.806Z,14.90
2018-05-10T03:44:01.566Z,9.23
2018-05-10T03:46:29.186Z,12.07
2018-05-10T03:48:56.769Z,9.60
2018-05-10T03:51:24.428Z,15.30
2018-05-10T03:53:52.016Z,15.40
2018-05-10T03:56:19.634Z,12.30
2018-05-10T03:58:47.230Z,10.43
2018-05-10T04:01:15.070Z,12.63
2018-05-10T04:03:54.291Z,10.57
2018-05-10T04:06:33.949Z,19.00
2018-05-10T04:09:15.036Z,17.83
2018-05-10T04:11:42.791Z,19.93
2018-05-10T04:14:10.378Z,14.47
2018-05-10T04:16:37.967Z,15.30
2018-05-10T04:19:05.596Z,8.70
2018-05-10T04:21:33.215Z,9.23
2018-05-10T04:24:00.826Z,18.30
2018-05-10T04:26:28.428Z,13.20
2018-05-10T04:28:56.386Z,9.60
2018-05-10T04:31:23.974Z,8.00
2018-05-10T04:33:51.557Z,9.80
2018-05-10T04:36:19.172Z,11.80
2018-05-10T04:38:47.194Z,8.33
2018-05-10T04:41:14.802Z,9.83
2018-05-10T04:43:42.392Z,8.07
2018-05-10T04:46:10.348Z,9.30
2018-05-10T04:48:37.942Z,7.30
2018-05-10T04:51:05.534Z,6.03
2018-05-10T04:53:33.163Z,10.57
2018-05-10T04:56:00.758Z,13.23
2018-05-10T04:58:28.371Z,11.60
2018-05-10T05:00:55.980Z,8.53
2018-05-10T05:03:24.208Z,14.43
2018-05-10T05:05:52.639Z,12.13
2018-05-10T05:08:20.230Z,10.33
2018-05-10T05:10:47.843Z,9.00
2018-05-10T05:13:15.448Z,10.50
2018-05-10T05:15:43.066Z,7.57
2018-05-10T05:18:10.656Z,8.77
2018-05-10T05:20:38.537Z,6.37
2018-05-10T05:23:06.134Z,7.80
2018-05-10T05:25:33.727Z,12.20
2018-05-10T05:28:01.339Z,10.40
2018-05-10T05:30:28.932Z,7.57
2018-05-10T05:32:56.586Z,8.80
2018-05-10T05:35:24.184Z,13.20
2018-05-10T05:37:51.781Z,21.33
2018-05-10T05:40:19.399Z,12.00
2018-05-10T05:42:46.990Z,17.67
2018-05-10T05:45:14.898Z,11.97
2018-05-10T05:47:42.488Z,7.40
2018-05-10T05:50:10.073Z,6.67
2018-05-10T05:52:37.691Z,12.83
2018-05-10T05:55:05.357Z,10.03
2018-05-10T05:57:32.942Z,10.13
2018-05-10T06:00:00.531Z,13.13
2018-05-10T06:02:28.332Z,14.80
2018-05-10T06:04:55.928Z,10.07
2018-05-10T06:07:23.525Z,14.67
2018-05-10T06:09:51.159Z,11.43
2018-05-10T06:12:18.758Z,16.30
2018-05-10T06:14:46.367Z,13.77
2018-05-10T06:17:13.968Z,9.40
2018-05-10T06:19:41.857Z,13.13
2018-05-10T06:22:09.446Z,12.07
2018-05-10T06:24:37.036Z,10.70
2018-05-10T06:27:04.649Z,9.80
2018-05-10T06:29:32.244Z,17.50
2018-05-10T06:31:59.964Z,14.40
2018-05-10T06:34:27.562Z,9.10
2018-05-10T06:36:55.304Z,20.70
2018-05-10T06:39:22.899Z,15.23
2018-05-10T06:41:50.487Z,10.80
2018-05-10T06:44:18.099Z,9.23
2018-05-10T06:46:46.666Z,12.73
2018-05-10T06:49:14.300Z,10.63
2018-05-10T06:51:41.897Z,10.33
2018-05-10T06:54:09.534Z,10.23
2018-05-10T06:56:37.128Z,7.73
2018-05-10T06:59:04.727Z,19.20
2018-05-10T07:01:32.353Z,11.50
2018-05-10T07:03:59.962Z,9.00
2018-05-10T07:06:27.581Z,11.10
2018-05-10T07:08:55.175Z,7.93
2018-05-10T07:11:23.095Z,9.33
2018-05-10T07:13:50.688Z,11.53
2018-05-10T07:16:18.290Z,14.40
2018-05-10T07:18:45.926Z,14.53
2018-05-10T07:21:13.523Z,19.17
2018-05-10T07:23:41.147Z,14.10
2018-05-10T07:26:08.742Z,9.63
2018-05-10T07:28:36.630Z,16.37
2018-05-10T07:31:04.218Z,15.40
2018-05-10T07:33:31.830Z,10.57
2018-05-10T07:35:59.461Z,17.77
2018-05-10T07:38:27.054Z,10.53
2018-05-10T07:40:54.667Z,9.90
2018-05-10T07:43:22.265Z,11.63
2018-05-10T07:45:50.059Z,12.40
2018-05-10T07:48:17.656Z,11.17
2018-05-10T07:50:45.289Z,9.53
2018-05-10T07:53:12.954Z,9.70
2018-05-10T07:55:40.505Z,8.77
2018-05-10T07:58:08.126Z,8.53
2018-05-10T08:00:35.767Z,7.97
2018-05-10T08:03:03.405Z,7.70
2018-05-10T08:05:31.023Z,8.40
2018-05-10T08:07:58.631Z,8.60
2018-05-10T08:10:26.241Z,14.80
2018-05-10T08:12:53.831Z,9.70
2018-05-10T08:15:22.289Z,12.90
2018-05-10T08:17:49.986Z,13.13
2018-05-10T08:20:17.849Z,15.00
2018-05-10T08:22:45.711Z,10.70
2018-05-10T08:25:13.300Z,7.03
2018-05-10T08:27:46.740Z,20.30
2018-05-10T08:30:14.354Z,16.57
2018-05-10T08:32:41.963Z,9.17
2018-05-10T08:35:09.543Z,8.30
2018-05-10T08:37:37.319Z,5.53
2018-05-10T08:40:04.912Z,12.07
2018-05-10T08:42:32.523Z,9.13
2018-05-10T08:45:00.193Z,7.90
2018-05-10T08:47:27.754Z,10.13
2018-05-10T08:49:55.362Z,8.70
2018-05-10T08:52:22.987Z,15.07
2018-05-10T08:54:50.606Z,9.23
2018-05-10T08:57:18.749Z,6.33
2018-05-10T08:59:46.357Z,12.87
2018-05-10T09:02:13.970Z,8.40
2018-05-10T09:04:41.558Z,7.07
2018-05-10T09:07:09.169Z,7.90
2018-05-10T09:09:36.771Z,9.17
2018-05-10T09:12:04.532Z,8.50
2018-05-10T09:14:32.119Z,5.37
2018-05-10T09:16:59.706Z,9.70
2018-05-10T09:19:27.403Z,6.40
2018-05-10T09:21:54.983Z,7.40
2018-05-10T09:24:22.719Z,4.00
2018-05-10T09:26:50.316Z,6.70
2018-05-10T09:29:18.003Z,36.53
2018-05-10T09:31:45.590Z,5.30
2018-05-10T09:34:13.215Z,6.30
2018-05-10T09:36:40.873Z,4.63
2018-05-10T09:39:08.417Z,5.60
2018-05-10T09:41:36.036Z,3.37
2018-05-10T09:44:03.633Z,8.87
2018-05-10T09:46:31.244Z,4.83
2018-05-10T09:48:58.839Z,5.70
2018-05-10T09:51:26.429Z,3.73
2018-05-10T09:53:54.069Z,6.67
2018-05-10T09:56:22.402Z,7.27
2018-05-10T09:58:50.166Z,6.20
2018-05-10T10:01:17.874Z,3.50
2018-05-10T10:03:45.936Z,6.03
2018-05-10T10:06:13.662Z,7.23
2018-05-10T10:08:41.262Z,4.60
2018-05-10T10:11:08.884Z,6.10
2018-05-10T10:13:36.473Z,6.63
2018-05-10T10:16:04.115Z,14.13
2018-05-10T10:18:31.704Z,3.30
2018-05-10T10:20:59.287Z,8.57
2018-05-10T10:23:26.895Z,7.00
2018-05-10T10:25:54.494Z,7.33
2018-05-10T10:28:22.110Z,8.77
2018-05-10T10:30:49.765Z,12.60
2018-05-10T10:33:17.770Z,2.50
2018-05-10T10:35:45.355Z,3.77
2018-05-10T10:38:13.011Z,3.20
2018-05-10T10:40:40.632Z,5.37
2018-05-10T10:43:08.231Z,2.63
2018-05-10T10:45:35.890Z,4.03
2018-05-10T10:48:03.477Z,3.83
2018-05-10T10:50:31.446Z,4.47
2018-05-10T10:52:59.053Z,4.13
2018-05-10T10:55:26.646Z,4.30
2018-05-10T10:57:54.262Z,6.30
2018-05-10T11:00:22.086Z,2.73
2018-05-10T11:02:49.699Z,2.90
2018-05-10T11:05:17.313Z,2.90
2018-05-10T11:07:45.051Z,5.53
2018-05-10T11:10:13.552Z,4.80
2018-05-10T11:12:41.138Z,9.00
2018-05-10T11:15:08.818Z,4.70
2018-05-10T11:17:36.369Z,4.00
2018-05-10T11:20:04.008Z,3.93
2018-05-10T11:22:31.692Z,4.30
2018-05-10T11:24:59.288Z,2.50
2018-05-10T11:27:26.928Z,3.40
2018-05-10T11:29:54.523Z,3.80
2018-05-10T11:32:22.098Z,7.30
2018-05-10T11:34:49.729Z,11.33
2018-05-10T11:37:17.348Z,21.10
2018-05-10T11:39:44.974Z,7.83
2018-05-10T11:42:12.591Z,8.93
2018-05-10T11:44:40.187Z,10.00
2018-05-10T11:47:07.950Z,8.27
2018-05-10T11:49:35.544Z,12.43
2018-05-10T11:52:03.136Z,10.37
2018-05-10T11:54:30.757Z,11.00
2018-05-10T11:56:58.345Z,9.60
2018-05-10T11:59:25.959Z,11.10
2018-05-10T12:01:53.562Z,24.33
2018-05-10T12:04:21.202Z,13.10
2018-05-10T12:06:48.799Z,27.93
2018-05-10T12:09:16.386Z,21.23
2018-05-10T12:11:44.014Z,13.57
2018-05-10T12:14:11.982Z,14.60
2018-05-10T12:16:39.594Z,20.00
2018-05-10T12:19:07.201Z,20.97
2018-05-10T12:21:35.049Z,36.50
2018-05-10T12:24:02.659Z,25.63
2018-05-10T12:26:30.853Z,10.67
2018-05-10T12:28:58.503Z,14.30
2018-05-10T12:31:26.104Z,12.17
2018-05-10T12:33:53.713Z,9.30
2018-05-10T12:36:21.298Z,10.60
2018-05-10T12:38:48.915Z,14.90
2018-05-10T12:41:17.107Z,10.30
2018-05-10T12:43:44.956Z,10.10
2018-05-10T12:46:12.717Z,13.80
2018-05-10T12:48:40.402Z,17.40
2018-05-10T12:51:07.974Z,8.90
2018-05-10T12:53:35.580Z,6.77
2018-05-10T12:56:03.174Z,7.73
2018-05-10T12:58:30.794Z,11.50
2018-05-10T13:00:58.380Z,5.87
2018-05-10T13:03:26.001Z,7.67
2018-05-10T13:05:53.591Z,12.33
2018-05-10T13:08:21.267Z,6.60
2018-05-10T13:10:48.829Z,5.73
2018-05-10T13:13:16.544Z,5.40
2018-05-10T13:15:44.152Z,4.40
2018-05-10T13:18:11.746Z,3.00
2018-05-10T13:20:39.353Z,3.93
2018-05-10T13:23:06.958Z,3.40
2018-05-10T13:25:34.702Z,4.30
2018-05-10T13:28:02.630Z,3.30
2018-05-10T13:30:30.429Z,12.00
2018-05-10T13:32:58.143Z,2.23
2018-05-10T13:35:25.772Z,7.43
2018-05-10T13:37:53.382Z,3.57
2018-05-10T13:40:20.980Z,9.67
2018-05-10T13:42:48.593Z,5.23
2018-05-10T13:45:16.213Z,3.63
2018-05-10T13:47:43.818Z,5.03
2018-05-10T13:50:13.531Z,9.07
2018-05-10T13:52:41.877Z,3.63
2018-05-10T13:55:09.483Z,4.90
2018-05-10T13:57:37.078Z,4.50
2018-05-10T14:00:04.700Z,9.40
2018-05-10T14:02:32.288Z,3.60
2018-05-10T14:04:59.901Z,2.30
2018-05-10T14:07:27.512Z,5.50
2018-05-10T14:09:55.143Z,5.23
2018-05-10T14:12:22.725Z,3.27
2018-05-10T14:14:50.337Z,4.17
2018-05-10T14:17:17.959Z,15.10
2018-05-10T14:19:45.549Z,4.43
2018-05-10T14:22:13.158Z,3.40
2018-05-10T14:24:40.745Z,7.80
2018-05-10T14:27:08.946Z,6.90
2018-05-10T14:29:36.552Z,9.43
2018-05-10T14:32:04.135Z,9.27
2018-05-10T14:34:31.755Z,7.03
2018-05-10T14:36:59.342Z,7.93
2018-05-10T14:39:26.978Z,11.23
2018-05-10T14:41:55.016Z,2.63
2018-05-10T14:44:22.664Z,12.57
2018-05-10T14:46:50.325Z,4.13
2018-05-10T14:49:17.916Z,5.23
2018-05-10T14:51:45.533Z,6.10
2018-05-10T14:54:13.121Z,4.47
2018-05-10T14:56:40.730Z,5.13
2018-05-10T14:59:08.315Z,6.80
2018-05-10T15:01:36.188Z,8.27
2018-05-10T15:04:03.783Z,6.77
2018-05-10T15:06:31.383Z,6.30
2018-05-10T15:08:59.104Z,5.70
2018-05-10T15:11:26.704Z,6.93
2018-05-10T15:13:54.364Z,12.60
2018-05-10T15:16:22.072Z,12.30
2018-05-10T15:18:49.730Z,12.63
2018-05-10T15:21:17.366Z,7.53
2018-05-10T15:23:45.073Z,7.70
2018-05-10T15:26:12.602Z,7.73
2018-05-10T15:28:40.204Z,8.30
2018-05-10T15:31:07.910Z,5.40
2018-05-10T15:33:35.503Z,12.40
2018-05-10T15:36:03.327Z,6.23
2018-05-10T15:38:30.935Z,6.83
2018-05-10T15:40:58.527Z,6.00
2018-05-10T15:43:26.146Z,7.60
2018-05-10T15:45:53.761Z,9.20
2018-05-10T15:48:21.688Z,8.60
2018-05-10T15:50:49.349Z,6.00
2018-05-10T15:53:16.947Z,7.07
2018-05-10T15:55:47.009Z,35.53
2018-05-10T15:58:14.602Z,14.07
2018-05-10T16:00:42.225Z,12.60
2018-05-10T16:03:09.820Z,11.03
2018-05-10T16:05:37.679Z,8.23
2018-05-10T16:08:05.267Z,8.90
2018-05-10T16:10:32.863Z,12.83
2018-05-10T16:13:00.504Z,12.87
2018-05-10T16:15:28.105Z,17.60
2018-05-10T16:17:56.535Z,8.30
2018-05-10T16:20:24.127Z,7.77
2018-05-10T16:22:51.744Z,7.20
2018-05-10T16:25:19.341Z,8.40
2018-05-10T16:27:47.146Z,8.00
2018-05-10T16:30:14.747Z,9.90
2018-05-10T16:32:42.330Z,9.00
2018-05-10T16:35:09.947Z,8.27
2018-05-10T16:37:37.535Z,10.50
2018-05-10T16:40:05.385Z,13.43
2018-05-10T16:42:32.970Z,9.90
2018-05-10T16:45:01.198Z,8.97
2018-05-10T16:47:28.802Z,10.47
2018-05-10T16:49:56.415Z,12.83
2018-05-10T16:52:24.023Z,7.77
2018-05-10T16:54:51.622Z,9.80
2018-05-10T16:57:19.239Z,13.50
2018-05-10T16:59:46.839Z,12.07
2018-05-10T17:02:14.496Z,13.00
2018-05-10T17:04:42.098Z,13.37
2018-05-10T17:07:09.724Z,12.10
2018-05-10T17:09:37.342Z,13.00
2018-05-10T17:12:04.936Z,11.70
2018-05-10T17:14:32.577Z,14.57
2018-05-10T17:17:00.161Z,21.47
2018-05-10T17:19:27.970Z,10.23
2018-05-10T17:21:55.577Z,23.03
2018-05-10T17:24:23.177Z,13.57
2018-05-10T17:26:50.800Z,12.93
2018-05-10T17:29:18.395Z,15.03
2018-05-10T17:31:46.013Z,12.90
2018-05-10T17:34:13.613Z,14.93
2018-05-10T17:36:41.625Z,15.63
2018-05-10T17:39:09.320Z,14.33
2018-05-10T17:41:37.044Z,18.30
2018-05-10T17:44:04.609Z,16.80
2018-05-10T17:46:32.204Z,22.30
2018-05-10T17:48:59.876Z,22.63
2018-05-10T17:51:27.484Z,17.27
2018-05-10T17:53:55.351Z,34.47
2018-05-10T17:56:22.958Z,23.40
2018-05-10T17:58:50.549Z,19.53
2018-05-10T18:01:18.204Z,17.83
2018-05-10T18:03:45.803Z,22.13
2018-05-10T18:06:13.422Z,23.53
2018-05-10T18:08:41.024Z,24.13
2018-05-10T18:11:08.849Z,34.83
2018-05-10T18:13:36.549Z,24.93
2018-05-10T18:16:04.068Z,30.00
2018-05-10T18:18:31.687Z,25.03
2018-05-10T18:20:59.278Z,24.03
2018-05-10T18:23:26.980Z,33.87
2018-05-10T18:25:54.515Z,31.40
2018-05-10T18:28:22.151Z,30.00
2018-05-10T18:30:49.748Z,33.77
2018-05-10T18:33:17.543Z,34.33
2018-05-10T18:35:45.095Z,35.77
2018-05-10T18:38:12.769Z,34.47
2018-05-10T18:40:40.392Z,34.10
2018-05-10T18:43:07.994Z,36.73
2018-05-10T18:45:35.761Z,39.23
2018-05-10T18:48:03.358Z,43.97
2018-05-10T18:50:30.980Z,34.30
2018-05-10T18:52:58.601Z,46.20
2018-05-10T18:55:26.306Z,38.57
2018-05-10T18:57:54.319Z,34.50
2018-05-10T19:00:22.130Z,38.97
2018-05-10T19:02:49.730Z,47.90
2018-05-10T19:05:17.331Z,45.40
2018-05-10T19:07:45.032Z,41.97
2018-05-10T19:10:12.917Z,45.73
2018-05-10T19:12:40.544Z,39.33
2018-05-10T19:15:08.166Z,56.50
2018-05-10T19:17:35.788Z,52.43
2018-05-10T19:20:03.395Z,52.50
2018-05-10T19:22:31.047Z,57.90
2018-05-10T19:24:58.655Z,56.10
2018-05-10T19:27:26.301Z,52.13
2018-05-10T19:29:53.932Z,50.50
2018-05-10T19:32:21.526Z,53.67
2018-05-10T19:34:49.219Z,58.70
2018-05-10T19:37:16.907Z,55.10
2018-05-10T19:39:44.640Z,52.77
2018-05-10T19:42:12.242Z,53.93
2018-05-10T19:44:39.839Z,53.63
2018-05-10T19:47:07.464Z,47.63
2018-05-10T19:49:35.078Z,50.87
2018-05-10T19:52:02.706Z,49.60
2018-05-10T19:54:30.300Z,44.87
2018-05-10T19:56:58.224Z,49.90
2018-05-10T19:59:25.842Z,49.60
2018-05-10T20:01:53.503Z,44.03
2018-05-10T20:04:21.122Z,49.33
2018-05-10T20:06:48.722Z,53.23
2018-05-10T20:09:16.346Z,39.67
2018-05-10T20:11:43.947Z,45.20
2018-05-10T20:14:11.596Z,41.03
2018-05-10T20:16:39.194Z,49.20
2018-05-10T20:19:06.784Z,42.40
2018-05-10T20:21:34.463Z,51.70
2018-05-10T20:24:02.102Z,44.20
2018-05-10T20:26:29.723Z,49.03
2018-05-10T20:28:57.331Z,36.33
2018-05-10T20:31:25.145Z,29.50
2018-05-10T20:33:52.742Z,32.00
2018-05-10T20:36:20.348Z,35.97
2018-05-10T20:38:47.962Z,41.17
2018-05-10T20:41:15.556Z,44.37
2018-05-10T20:43:43.371Z,34.40
2018-05-10T20:46:11.003Z,36.40
2018-05-10T20:48:38.614Z,41.40
2018-05-10T20:51:06.230Z,32.53
2018-05-10T20:53:33.829Z,28.53
2018-05-10T20:56:01.507Z,33.80
2018-05-10T20:58:29.080Z,27.57
2018-05-10T21:00:56.688Z,28.43
2018-05-10T21:03:24.306Z,36.10
2018-05-10T21:05:51.899Z,31.47
2018-05-10T21:08:19.536Z,29.80
2018-05-10T21:10:47.146Z,33.73
2018-05-10T21:13:14.799Z,33.53
2018-05-10T21:15:42.391Z,21.77
2018-05-10T21:18:10.233Z,30.67
2018-05-10T21:20:37.839Z,25.27
2018-05-10T21:23:05.448Z,26.63
2018-05-10T21:25:33.077Z,24.73
2018-05-10T21:28:00.678Z,36.20
2018-05-10T21:30:28.302Z,25.97
2018-05-10T21:32:55.895Z,23.70
2018-05-10T21:35:23.655Z,28.67
2018-05-10T21:37:51.252Z,39.60
2018-05-10T21:40:18.854Z,40.40
2018-05-10T21:42:46.488Z,30.27
2018-05-10T21:45:14.098Z,28.50
2018-05-10T21:47:41.719Z,28.53
2018-05-10T21:50:09.324Z,23.40
2018-05-10T21:52:36.946Z,22.70
2018-05-10T21:55:04.562Z,18.60
2018-05-10T21:57:32.214Z,23.13
2018-05-10T21:59:59.877Z,24.50
2018-05-10T22:02:27.498Z,24.53
2018-05-10T22:04:55.120Z,26.57
2018-05-10T22:07:22.712Z,26.47
2018-05-10T22:09:50.338Z,25.20
2018-05-10T22:12:17.955Z,31.50
2018-05-10T22:14:45.598Z,27.23
2018-05-10T22:17:13.192Z,23.60
2018-05-10T22:19:40.782Z,28.27
2018-05-10T22:22:08.403Z,22.63
2018-05-10T22:24:36.057Z,24.83
2018-05-10T22:27:03.668Z,18.50
2018-05-10T22:29:31.288Z,26.77
2018-05-10T22:31:59.177Z,34.60
2018-05-10T22:34:26.773Z,26.37
2018-05-10T22:36:54.378Z,31.10
2018-05-10T22:39:22.002Z,33.27
2018-05-10T22:41:49.604Z,31.83
2018-05-10T22:44:17.252Z,31.07
2018-05-10T22:46:44.853Z,34.33
2018-05-10T22:49:12.486Z,35.50
2018-05-10T22:51:40.126Z,27.37
2018-05-10T22:54:07.738Z,33.20
2018-05-10T22:56:35.362Z,41.27
2018-05-10T22:59:02.964Z,34.20
2018-05-10T23:01:30.618Z,29.43
2018-05-10T23:03:58.227Z,39.63
2018-05-10T23:06:25.857Z,35.57
2018-05-10T23:08:53.474Z,35.37
2018-05-10T23:11:21.072Z,27.93
2018-05-10T23:13:48.735Z,37.87
2018-05-10T23:16:16.354Z,36.50
2018-05-10T23:18:43.978Z,33.50
2018-05-10T23:21:11.569Z,25.53
2018-05-10T23:23:39.170Z,29.87
2018-05-10T23:26:06.813Z,25.47
2018-05-10T23:28:34.402Z,31.13
2018-05-10T23:31:02.023Z,35.03
2018-05-10T23:33:29.623Z,34.20
2018-05-10T23:35:57.223Z,34.37
2018-05-10T23:38:24.850Z,43.33
2018-05-10T23:40:52.444Z,30.03
2018-05-10T23:43:20.067Z,34.10
2018-05-10T23:45:47.671Z,38.03
2018-05-10T23:48:15.266Z,37.13
2018-05-10T23:50:42.886Z,45.37
2018-05-10T23:53:10.479Z,35.70
2018-05-10T23:55:38.289Z,30.50
2018-05-10T23:58:05.948Z,41.73
